sensor_id;sensor_type;location;lat;lon;timestamp;P1;durP1;ratioP1;P2;durP2;ratioP2
60243;SDS011;46106;51.468;5.814;2022-10-16T00:00:31;11.70;;;5.50;;
60243;SDS011;46106;51.468;5.814;2022-10-16T00:02:57;13.23;;;5.53;;
60243;SDS011;46106;51.468;5.814;2022-10-16T00:05:23;17.10;;;5.70;;
60243;SDS011;46106;51.468;5.814;2022-10-16T00:07:48;13.52;;;5.60;;
60243;SDS011;46106;51.468;5.814;2022-10-16T00:10:14;11.15;;;5.53;;
60243;SDS011;46106;51.468;5.814;2022-10-16T00:12:39;10.65;;;5.35;;
60243;SDS011;46106;51.468;5.814;2022-10-16T00:15:05;10.10;;;5.90;;
60243;SDS011;46106;51.468;5.814;2022-10-16T00:17:31;10.70;;;5.03;;
60243;SDS011;46106;51.468;5.814;2022-10-16T00:19:56;10.68;;;5.40;;
60243;SDS011;46106;51.468;5.814;2022-10-16T00:22:22;16.05;;;5.40;;
60243;SDS011;46106;51.468;5.814;2022-10-16T00:24:48;11.98;;;5.10;;
60243;SDS011;46106;51.468;5.814;2022-10-16T00:27:14;11.38;;;5.05;;
60243;SDS011;46106;51.468;5.814;2022-10-16T00:29:39;10.20;;;4.97;;
60243;SDS011;46106;51.468;5.814;2022-10-16T00:32:04;9.27;;;4.93;;
60243;SDS011;46106;51.468;5.814;2022-10-16T00:34:30;7.72;;;4.78;;
60243;SDS011;46106;51.468;5.814;2022-10-16T00:36:55;11.75;;;5.07;;
60243;SDS011;46106;51.468;5.814;2022-10-16T00:39:21;10.25;;;5.32;;
60243;SDS011;46106;51.468;5.814;2022-10-16T00:41:47;13.68;;;5.03;;
60243;SDS011;46106;51.468;5.814;2022-10-16T00:47:09;6.03;;;4.75;;
60243;SDS011;46106;51.468;5.814;2022-10-16T00:49:37;11.23;;;4.97;;
60243;SDS011;46106;51.468;5.814;2022-10-16T00:52:03;6.75;;;5.05;;
60243;SDS011;46106;51.468;5.814;2022-10-16T00:54:31;8.43;;;4.25;;
60243;SDS011;46106;51.468;5.814;2022-10-16T00:56:58;12.82;;;5.10;;
60243;SDS011;46106;51.468;5.814;2022-10-16T00:59:34;13.35;;;4.90;;
60243;SDS011;46106;51.468;5.814;2022-10-16T01:02:02;10.50;;;4.78;;
60243;SDS011;46106;51.468;5.814;2022-10-16T01:04:31;7.03;;;4.68;;
60243;SDS011;46106;51.468;5.814;2022-10-16T01:12:18;6.95;;;3.92;;
60243;SDS011;46106;51.468;5.814;2022-10-16T01:15:04;10.10;;;4.30;;
60243;SDS011;46106;51.468;5.814;2022-10-16T01:20:43;7.55;;;3.97;;
60243;SDS011;46106;51.468;5.814;2022-10-16T01:31:22;7.40;;;3.75;;
60243;SDS011;46106;51.468;5.814;2022-10-16T01:33:56;8.57;;;4.00;;
60243;SDS011;46106;51.468;5.814;2022-10-16T01:36:34;6.95;;;3.95;;
60243;SDS011;46106;51.468;5.814;2022-10-16T01:39:03;5.32;;;3.88;;
60243;SDS011;46106;51.468;5.814;2022-10-16T01:41:35;4.53;;;3.47;;
60243;SDS011;46106;51.468;5.814;2022-10-16T01:44:05;8.88;;;3.58;;
60243;SDS011;46106;51.468;5.814;2022-10-16T01:46:36;17.13;;;4.00;;
60243;SDS011;46106;51.468;5.814;2022-10-16T01:49:04;6.03;;;3.40;;
60243;SDS011;46106;51.468;5.814;2022-10-16T01:51:33;6.95;;;3.45;;
60243;SDS011;46106;51.468;5.814;2022-10-16T01:54:00;7.78;;;3.88;;
60243;SDS011;46106;51.468;5.814;2022-10-16T01:56:27;7.80;;;3.97;;
60243;SDS011;46106;51.468;5.814;2022-10-16T01:58:57;6.10;;;3.50;;
60243;SDS011;46106;51.468;5.814;2022-10-16T02:01:29;6.93;;;3.65;;
60243;SDS011;46106;51.468;5.814;2022-10-16T02:03:58;6.72;;;3.58;;
60243;SDS011;46106;51.468;5.814;2022-10-16T02:06:29;8.60;;;3.85;;
60243;SDS011;46106;51.468;5.814;2022-10-16T02:08:55;5.88;;;3.28;;
60243;SDS011;46106;51.468;5.814;2022-10-16T02:11:20;9.75;;;3.92;;
60243;SDS011;46106;51.468;5.814;2022-10-16T02:13:57;8.90;;;3.80;;
60243;SDS011;46106;51.468;5.814;2022-10-16T02:16:32;4.03;;;3.20;;
60243;SDS011;46106;51.468;5.814;2022-10-16T02:19:00;8.27;;;3.58;;
60243;SDS011;46106;51.468;5.814;2022-10-16T02:21:26;7.38;;;3.65;;
60243;SDS011;46106;51.468;5.814;2022-10-16T02:26:52;30.08;;;6.20;;
60243;SDS011;46106;51.468;5.814;2022-10-16T02:29:42;6.00;;;3.22;;
60243;SDS011;46106;51.468;5.814;2022-10-16T02:32:15;9.90;;;3.53;;
60243;SDS011;46106;51.468;5.814;2022-10-16T02:34:45;5.28;;;3.20;;
60243;SDS011;46106;51.468;5.814;2022-10-16T02:37:13;4.40;;;3.17;;
60243;SDS011;46106;51.468;5.814;2022-10-16T02:39:39;9.93;;;2.97;;
60243;SDS011;46106;51.468;5.814;2022-10-16T02:42:12;7.78;;;3.28;;
60243;SDS011;46106;51.468;5.814;2022-10-16T02:44:38;3.45;;;3.15;;
60243;SDS011;46106;51.468;5.814;2022-10-16T02:47:06;4.28;;;2.75;;
60243;SDS011;46106;51.468;5.814;2022-10-16T02:49:32;8.73;;;2.70;;
60243;SDS011;46106;51.468;5.814;2022-10-16T02:51:57;3.00;;;2.70;;
60243;SDS011;46106;51.468;5.814;2022-10-16T02:54:22;3.17;;;2.80;;
60243;SDS011;46106;51.468;5.814;2022-10-16T02:56:49;3.78;;;2.97;;
60243;SDS011;46106;51.468;5.814;2022-10-16T02:59:14;10.45;;;3.15;;
60243;SDS011;46106;51.468;5.814;2022-10-16T03:01:40;8.07;;;3.42;;
60243;SDS011;46106;51.468;5.814;2022-10-16T03:04:05;4.35;;;3.47;;
60243;SDS011;46106;51.468;5.814;2022-10-16T03:06:31;6.05;;;2.85;;
60243;SDS011;46106;51.468;5.814;2022-10-16T03:08:56;8.45;;;2.90;;
60243;SDS011;46106;51.468;5.814;2022-10-16T03:11:21;8.82;;;2.35;;
60243;SDS011;46106;51.468;5.814;2022-10-16T03:13:47;5.03;;;2.90;;
60243;SDS011;46106;51.468;5.814;2022-10-16T03:16:12;4.78;;;2.97;;
60243;SDS011;46106;51.468;5.814;2022-10-16T03:18:38;7.93;;;2.88;;
60243;SDS011;46106;51.468;5.814;2022-10-16T03:21:03;8.52;;;3.10;;
60243;SDS011;46106;51.468;5.814;2022-10-16T03:23:29;5.55;;;2.38;;
60243;SDS011;46106;51.468;5.814;2022-10-16T03:25:54;8.82;;;2.78;;
60243;SDS011;46106;51.468;5.814;2022-10-16T03:28:20;9.70;;;3.08;;
60243;SDS011;46106;51.468;5.814;2022-10-16T03:30:46;6.63;;;3.03;;
60243;SDS011;46106;51.468;5.814;2022-10-16T03:33:11;5.78;;;2.72;;
60243;SDS011;46106;51.468;5.814;2022-10-16T03:35:37;3.30;;;2.53;;
60243;SDS011;46106;51.468;5.814;2022-10-16T03:38:02;4.85;;;2.70;;
60243;SDS011;46106;51.468;5.814;2022-10-16T03:40:28;5.57;;;3.05;;
60243;SDS011;46106;51.468;5.814;2022-10-16T03:42:53;5.00;;;2.80;;
60243;SDS011;46106;51.468;5.814;2022-10-16T03:45:22;7.43;;;2.80;;
60243;SDS011;46106;51.468;5.814;2022-10-16T03:47:48;4.82;;;2.55;;
60243;SDS011;46106;51.468;5.814;2022-10-16T03:50:13;4.43;;;2.75;;
60243;SDS011;46106;51.468;5.814;2022-10-16T03:52:39;3.95;;;2.60;;
60243;SDS011;46106;51.468;5.814;2022-10-16T03:55:05;2.55;;;2.35;;
60243;SDS011;46106;51.468;5.814;2022-10-16T03:57:31;3.33;;;2.50;;
60243;SDS011;46106;51.468;5.814;2022-10-16T03:59:56;7.15;;;2.75;;
60243;SDS011;46106;51.468;5.814;2022-10-16T04:02:22;9.57;;;3.55;;
60243;SDS011;46106;51.468;5.814;2022-10-16T04:04:47;5.63;;;2.90;;
60243;SDS011;46106;51.468;5.814;2022-10-16T04:07:13;3.40;;;2.40;;
60243;SDS011;46106;51.468;5.814;2022-10-16T04:09:38;4.70;;;2.40;;
60243;SDS011;46106;51.468;5.814;2022-10-16T04:12:04;5.47;;;2.22;;
60243;SDS011;46106;51.468;5.814;2022-10-16T04:14:29;5.22;;;2.00;;
60243;SDS011;46106;51.468;5.814;2022-10-16T04:16:54;7.25;;;2.38;;
60243;SDS011;46106;51.468;5.814;2022-10-16T04:19:20;3.35;;;2.40;;
60243;SDS011;46106;51.468;5.814;2022-10-16T04:21:45;6.85;;;2.53;;
60243;SDS011;46106;51.468;5.814;2022-10-16T04:24:11;2.45;;;2.08;;
60243;SDS011;46106;51.468;5.814;2022-10-16T04:26:38;2.38;;;1.85;;
60243;SDS011;46106;51.468;5.814;2022-10-16T04:29:03;4.68;;;2.00;;
60243;SDS011;46106;51.468;5.814;2022-10-16T04:31:29;3.30;;;2.00;;
60243;SDS011;46106;51.468;5.814;2022-10-16T04:33:54;8.95;;;2.10;;
60243;SDS011;46106;51.468;5.814;2022-10-16T04:36:20;6.32;;;2.25;;
60243;SDS011;46106;51.468;5.814;2022-10-16T04:38:45;4.68;;;1.80;;
60243;SDS011;46106;51.468;5.814;2022-10-16T04:41:10;3.75;;;2.00;;
60243;SDS011;46106;51.468;5.814;2022-10-16T04:43:36;7.50;;;2.15;;
60243;SDS011;46106;51.468;5.814;2022-10-16T04:46:01;4.90;;;2.08;;
60243;SDS011;46106;51.468;5.814;2022-10-16T04:48:29;4.25;;;1.92;;
60243;SDS011;46106;51.468;5.814;2022-10-16T04:50:55;6.30;;;1.95;;
60243;SDS011;46106;51.468;5.814;2022-10-16T04:53:20;12.00;;;2.35;;
60243;SDS011;46106;51.468;5.814;2022-10-16T04:55:46;5.13;;;1.73;;
60243;SDS011;46106;51.468;5.814;2022-10-16T04:58:13;3.88;;;2.00;;
60243;SDS011;46106;51.468;5.814;2022-10-16T05:00:38;2.90;;;1.80;;
60243;SDS011;46106;51.468;5.814;2022-10-16T05:03:04;3.28;;;2.00;;
60243;SDS011;46106;51.468;5.814;2022-10-16T05:05:32;2.63;;;1.63;;
60243;SDS011;46106;51.468;5.814;2022-10-16T05:07:58;6.30;;;1.98;;
60243;SDS011;46106;51.468;5.814;2022-10-16T05:10:23;3.50;;;2.03;;
60243;SDS011;46106;51.468;5.814;2022-10-16T05:12:49;7.63;;;2.10;;
60243;SDS011;46106;51.468;5.814;2022-10-16T05:15:14;5.95;;;2.38;;
60243;SDS011;46106;51.468;5.814;2022-10-16T05:17:40;5.82;;;2.65;;
60243;SDS011;46106;51.468;5.814;2022-10-16T05:20:06;3.70;;;2.13;;
60243;SDS011;46106;51.468;5.814;2022-10-16T05:22:31;4.43;;;2.50;;
60243;SDS011;46106;51.468;5.814;2022-10-16T05:24:57;4.32;;;1.88;;
60243;SDS011;46106;51.468;5.814;2022-10-16T05:27:22;6.63;;;2.17;;
60243;SDS011;46106;51.468;5.814;2022-10-16T05:29:48;5.50;;;2.35;;
60243;SDS011;46106;51.468;5.814;2022-10-16T05:32:17;5.15;;;2.55;;
60243;SDS011;46106;51.468;5.814;2022-10-16T05:34:43;3.33;;;2.20;;
60243;SDS011;46106;51.468;5.814;2022-10-16T05:37:10;6.53;;;2.30;;
60243;SDS011;46106;51.468;5.814;2022-10-16T05:39:36;8.40;;;2.47;;
60243;SDS011;46106;51.468;5.814;2022-10-16T05:42:03;7.10;;;2.50;;
60243;SDS011;46106;51.468;5.814;2022-10-16T05:44:28;5.80;;;2.40;;
60243;SDS011;46106;51.468;5.814;2022-10-16T05:46:54;6.18;;;2.38;;
60243;SDS011;46106;51.468;5.814;2022-10-16T05:49:20;7.63;;;2.35;;
60243;SDS011;46106;51.468;5.814;2022-10-16T05:51:45;13.30;;;2.50;;
60243;SDS011;46106;51.468;5.814;2022-10-16T05:54:11;6.03;;;2.95;;
60243;SDS011;46106;51.468;5.814;2022-10-16T05:56:36;4.80;;;2.42;;
60243;SDS011;46106;51.468;5.814;2022-10-16T05:59:03;5.18;;;2.50;;
60243;SDS011;46106;51.468;5.814;2022-10-16T06:01:29;3.50;;;2.58;;
60243;SDS011;46106;51.468;5.814;2022-10-16T06:03:56;5.07;;;2.90;;
60243;SDS011;46106;51.468;5.814;2022-10-16T06:06:23;3.70;;;2.00;;
60243;SDS011;46106;51.468;5.814;2022-10-16T06:08:53;2.55;;;2.35;;
60243;SDS011;46106;51.468;5.814;2022-10-16T06:11:21;9.48;;;2.40;;
60243;SDS011;46106;51.468;5.814;2022-10-16T06:13:55;8.48;;;2.55;;
60243;SDS011;46106;51.468;5.814;2022-10-16T06:16:23;6.57;;;2.45;;
60243;SDS011;46106;51.468;5.814;2022-10-16T06:18:53;10.88;;;3.08;;
60243;SDS011;46106;51.468;5.814;2022-10-16T06:21:21;13.15;;;2.50;;
60243;SDS011;46106;51.468;5.814;2022-10-16T06:23:50;4.72;;;2.40;;
60243;SDS011;46106;51.468;5.814;2022-10-16T06:26:16;3.85;;;2.90;;
60243;SDS011;46106;51.468;5.814;2022-10-16T06:28:43;4.22;;;2.20;;
60243;SDS011;46106;51.468;5.814;2022-10-16T06:31:09;8.23;;;2.67;;
60243;SDS011;46106;51.468;5.814;2022-10-16T06:33:36;4.57;;;2.60;;
60243;SDS011;46106;51.468;5.814;2022-10-16T06:36:12;4.20;;;2.17;;
60243;SDS011;46106;51.468;5.814;2022-10-16T06:38:39;8.95;;;2.20;;
60243;SDS011;46106;51.468;5.814;2022-10-16T06:41:05;7.32;;;2.75;;
60243;SDS011;46106;51.468;5.814;2022-10-16T06:43:32;5.50;;;2.67;;
60243;SDS011;46106;51.468;5.814;2022-10-16T06:46:00;7.63;;;2.40;;
60243;SDS011;46106;51.468;5.814;2022-10-16T06:48:27;9.43;;;2.33;;
60243;SDS011;46106;51.468;5.814;2022-10-16T06:50:57;3.00;;;2.47;;
60243;SDS011;46106;51.468;5.814;2022-10-16T06:53:30;8.48;;;2.33;;
60243;SDS011;46106;51.468;5.814;2022-10-16T06:55:57;5.45;;;2.63;;
60243;SDS011;46106;51.468;5.814;2022-10-16T06:58:23;6.43;;;2.65;;
60243;SDS011;46106;51.468;5.814;2022-10-16T07:00:54;5.18;;;2.47;;
60243;SDS011;46106;51.468;5.814;2022-10-16T07:03:21;10.05;;;2.90;;
60243;SDS011;46106;51.468;5.814;2022-10-16T07:05:47;4.22;;;2.78;;
60243;SDS011;46106;51.468;5.814;2022-10-16T07:08:12;8.07;;;3.22;;
60243;SDS011;46106;51.468;5.814;2022-10-16T07:10:38;4.85;;;2.55;;
60243;SDS011;46106;51.468;5.814;2022-10-16T07:13:03;6.35;;;2.67;;
60243;SDS011;46106;51.468;5.814;2022-10-16T07:15:28;3.30;;;2.22;;
60243;SDS011;46106;51.468;5.814;2022-10-16T07:17:54;13.80;;;2.33;;
60243;SDS011;46106;51.468;5.814;2022-10-16T07:20:19;6.38;;;2.53;;
60243;SDS011;46106;51.468;5.814;2022-10-16T07:22:46;4.63;;;2.00;;
60243;SDS011;46106;51.468;5.814;2022-10-16T07:25:11;3.67;;;2.05;;
60243;SDS011;46106;51.468;5.814;2022-10-16T07:27:37;9.02;;;2.42;;
60243;SDS011;46106;51.468;5.814;2022-10-16T07:30:03;7.55;;;2.45;;
60243;SDS011;46106;51.468;5.814;2022-10-16T07:32:29;6.88;;;2.88;;
60243;SDS011;46106;51.468;5.814;2022-10-16T07:34:55;4.88;;;2.10;;
60243;SDS011;46106;51.468;5.814;2022-10-16T07:37:23;12.90;;;3.22;;
60243;SDS011;46106;51.468;5.814;2022-10-16T07:39:48;6.72;;;2.25;;
60243;SDS011;46106;51.468;5.814;2022-10-16T07:42:15;8.68;;;1.95;;
60243;SDS011;46106;51.468;5.814;2022-10-16T07:44:40;2.85;;;1.90;;
60243;SDS011;46106;51.468;5.814;2022-10-16T07:47:06;6.75;;;2.00;;
60243;SDS011;46106;51.468;5.814;2022-10-16T07:49:32;7.10;;;2.63;;
60243;SDS011;46106;51.468;5.814;2022-10-16T07:51:57;7.40;;;2.58;;
60243;SDS011;46106;51.468;5.814;2022-10-16T07:54:23;7.68;;;1.90;;
60243;SDS011;46106;51.468;5.814;2022-10-16T07:56:48;5.88;;;2.35;;
60243;SDS011;46106;51.468;5.814;2022-10-16T07:59:14;9.13;;;1.92;;
60243;SDS011;46106;51.468;5.814;2022-10-16T08:01:39;8.73;;;2.33;;
60243;SDS011;46106;51.468;5.814;2022-10-16T08:04:07;5.55;;;2.35;;
60243;SDS011;46106;51.468;5.814;2022-10-16T08:06:37;4.95;;;2.13;;
60243;SDS011;46106;51.468;5.814;2022-10-16T08:09:04;6.25;;;2.45;;
60243;SDS011;46106;51.468;5.814;2022-10-16T08:11:29;6.75;;;1.88;;
60243;SDS011;46106;51.468;5.814;2022-10-16T08:13:55;6.25;;;2.25;;
60243;SDS011;46106;51.468;5.814;2022-10-16T08:16:20;5.68;;;2.08;;
60243;SDS011;46106;51.468;5.814;2022-10-16T08:18:46;4.70;;;2.45;;
60243;SDS011;46106;51.468;5.814;2022-10-16T08:21:16;4.93;;;2.28;;
60243;SDS011;46106;51.468;5.814;2022-10-16T08:23:44;9.70;;;2.20;;
60243;SDS011;46106;51.468;5.814;2022-10-16T08:26:10;3.35;;;1.67;;
60243;SDS011;46106;51.468;5.814;2022-10-16T08:28:36;2.92;;;1.48;;
60243;SDS011;46106;51.468;5.814;2022-10-16T08:31:20;9.20;;;1.60;;
60243;SDS011;46106;51.468;5.814;2022-10-16T08:33:46;6.63;;;1.30;;
60243;SDS011;46106;51.468;5.814;2022-10-16T08:36:13;6.60;;;1.50;;
60243;SDS011;46106;51.468;5.814;2022-10-16T08:38:38;4.03;;;1.63;;
60243;SDS011;46106;51.468;5.814;2022-10-16T08:49:12;3.58;;;1.13;;
60243;SDS011;46106;51.468;5.814;2022-10-16T08:51:41;7.90;;;1.40;;
60243;SDS011;46106;51.468;5.814;2022-10-16T08:54:50;6.28;;;1.27;;
60243;SDS011;46106;51.468;5.814;2022-10-16T08:57:04;5.30;;;1.30;;
60243;SDS011;46106;51.468;5.814;2022-10-16T08:59:39;6.45;;;1.10;;
60243;SDS011;46106;51.468;5.814;2022-10-16T09:02:15;6.30;;;1.27;;
60243;SDS011;46106;51.468;5.814;2022-10-16T09:10:34;5.63;;;1.20;;
60243;SDS011;46106;51.468;5.814;2022-10-16T09:13:17;5.22;;;1.40;;
60243;SDS011;46106;51.468;5.814;2022-10-16T09:18:40;3.72;;;1.10;;
60243;SDS011;46106;51.468;5.814;2022-10-16T09:21:43;4.68;;;1.17;;
60243;SDS011;46106;51.468;5.814;2022-10-16T09:24:16;7.80;;;1.40;;
60243;SDS011;46106;51.468;5.814;2022-10-16T09:26:44;10.80;;;1.05;;
60243;SDS011;46106;51.468;5.814;2022-10-16T09:29:11;7.18;;;1.50;;
60243;SDS011;46106;51.468;5.814;2022-10-16T09:31:38;5.55;;;1.00;;
60243;SDS011;46106;51.468;5.814;2022-10-16T09:34:03;4.00;;;1.00;;
60243;SDS011;46106;51.468;5.814;2022-10-16T09:36:42;10.38;;;1.10;;
60243;SDS011;46106;51.468;5.814;2022-10-16T09:39:12;5.63;;;1.33;;
60243;SDS011;46106;51.468;5.814;2022-10-16T09:41:38;4.20;;;1.00;;
60243;SDS011;46106;51.468;5.814;2022-10-16T09:44:21;6.15;;;1.20;;
60243;SDS011;46106;51.468;5.814;2022-10-16T09:47:03;5.43;;;1.10;;
60243;SDS011;46106;51.468;5.814;2022-10-16T09:49:30;7.43;;;1.00;;
60243;SDS011;46106;51.468;5.814;2022-10-16T09:54:52;5.45;;;1.20;;
60243;SDS011;46106;51.468;5.814;2022-10-16T09:57:18;8.48;;;1.05;;
60243;SDS011;46106;51.468;5.814;2022-10-16T09:59:48;8.45;;;0.95;;
60243;SDS011;46106;51.468;5.814;2022-10-16T10:02:19;3.28;;;1.05;;
60243;SDS011;46106;51.468;5.814;2022-10-16T10:04:52;7.85;;;1.25;;
60243;SDS011;46106;51.468;5.814;2022-10-16T10:07:25;3.88;;;0.85;;
60243;SDS011;46106;51.468;5.814;2022-10-16T10:09:54;3.40;;;1.00;;
60243;SDS011;46106;51.468;5.814;2022-10-16T10:12:24;4.80;;;0.90;;
60243;SDS011;46106;51.468;5.814;2022-10-16T10:14:51;5.13;;;0.90;;
60243;SDS011;46106;51.468;5.814;2022-10-16T10:17:21;8.50;;;0.75;;
60243;SDS011;46106;51.468;5.814;2022-10-16T10:19:55;6.57;;;1.10;;
60243;SDS011;46106;51.468;5.814;2022-10-16T10:27:29;3.58;;;0.98;;
60243;SDS011;46106;51.468;5.814;2022-10-16T10:32:37;4.70;;;1.48;;
60243;SDS011;46106;51.468;5.814;2022-10-16T10:36:16;9.43;;;0.85;;
60243;SDS011;46106;51.468;5.814;2022-10-16T10:46:57;6.40;;;1.05;;
60243;SDS011;46106;51.468;5.814;2022-10-16T11:00:16;6.32;;;0.90;;
60243;SDS011;46106;51.468;5.814;2022-10-16T11:02:58;6.85;;;1.17;;
60243;SDS011;46106;51.468;5.814;2022-10-16T11:05:39;8.03;;;0.80;;
60243;SDS011;46106;51.468;5.814;2022-10-16T11:10:58;5.22;;;1.30;;
60243;SDS011;46106;51.468;5.814;2022-10-16T11:13:32;4.68;;;0.88;;
60243;SDS011;46106;51.468;5.814;2022-10-16T11:16:15;11.98;;;1.20;;
60243;SDS011;46106;51.468;5.814;2022-10-16T11:19:08;6.88;;;0.90;;
60243;SDS011;46106;51.468;5.814;2022-10-16T11:21:37;4.13;;;0.95;;
60243;SDS011;46106;51.468;5.814;2022-10-16T11:24:12;4.50;;;0.70;;
60243;SDS011;46106;51.468;5.814;2022-10-16T11:26:48;7.53;;;1.05;;
60243;SDS011;46106;51.468;5.814;2022-10-16T11:29:29;3.15;;;0.85;;
60243;SDS011;46106;51.468;5.814;2022-10-16T11:32:01;9.73;;;1.13;;
60243;SDS011;46106;51.468;5.814;2022-10-16T11:34:34;6.57;;;1.00;;
60243;SDS011;46106;51.468;5.814;2022-10-16T11:37:27;5.28;;;0.82;;
60243;SDS011;46106;51.468;5.814;2022-10-16T11:40:02;3.43;;;0.80;;
60243;SDS011;46106;51.468;5.814;2022-10-16T11:42:44;7.55;;;0.98;;
60243;SDS011;46106;51.468;5.814;2022-10-16T11:45:23;5.65;;;1.08;;
60243;SDS011;46106;51.468;5.814;2022-10-16T11:48:07;6.20;;;0.85;;
60243;SDS011;46106;51.468;5.814;2022-10-16T11:50:50;8.30;;;0.85;;
60243;SDS011;46106;51.468;5.814;2022-10-16T11:55:57;6.40;;;1.08;;
60243;SDS011;46106;51.468;5.814;2022-10-16T11:58:28;8.40;;;0.73;;
60243;SDS011;46106;51.468;5.814;2022-10-16T12:03:30;5.40;;;0.68;;
60243;SDS011;46106;51.468;5.814;2022-10-16T12:09:01;7.93;;;0.80;;
60243;SDS011;46106;51.468;5.814;2022-10-16T12:16:38;6.82;;;0.85;;
60243;SDS011;46106;51.468;5.814;2022-10-16T12:19:17;2.25;;;0.68;;
60243;SDS011;46106;51.468;5.814;2022-10-16T12:21:43;3.70;;;0.80;;
60243;SDS011;46106;51.468;5.814;2022-10-16T12:26:59;8.05;;;1.95;;
60243;SDS011;46106;51.468;5.814;2022-10-16T12:29:29;5.22;;;1.00;;
60243;SDS011;46106;51.468;5.814;2022-10-16T12:31:55;4.57;;;1.20;;
60243;SDS011;46106;51.468;5.814;2022-10-16T12:34:22;4.43;;;1.00;;
60243;SDS011;46106;51.468;5.814;2022-10-16T12:36:52;10.13;;;1.20;;
60243;SDS011;46106;51.468;5.814;2022-10-16T12:39:20;7.78;;;1.00;;
60243;SDS011;46106;51.468;5.814;2022-10-16T12:41:48;8.35;;;0.95;;
60243;SDS011;46106;51.468;5.814;2022-10-16T12:44:26;4.65;;;1.02;;
60243;SDS011;46106;51.468;5.814;2022-10-16T12:46:58;7.00;;;0.87;;
60243;SDS011;46106;51.468;5.814;2022-10-16T12:51:57;6.40;;;0.90;;
60243;SDS011;46106;51.468;5.814;2022-10-16T13:04:59;5.47;;;1.02;;
60243;SDS011;46106;51.468;5.814;2022-10-16T13:07:37;5.60;;;0.80;;
60243;SDS011;46106;51.468;5.814;2022-10-16T13:19:18;4.82;;;1.17;;
60243;SDS011;46106;51.468;5.814;2022-10-16T13:22:17;3.75;;;0.95;;
60243;SDS011;46106;51.468;5.814;2022-10-16T13:25:16;2.38;;;0.60;;
60243;SDS011;46106;51.468;5.814;2022-10-16T13:27:55;5.13;;;0.85;;
60243;SDS011;46106;51.468;5.814;2022-10-16T13:30:28;5.20;;;1.23;;
60243;SDS011;46106;51.468;5.814;2022-10-16T13:33:02;4.85;;;1.02;;
60243;SDS011;46106;51.468;5.814;2022-10-16T13:35:34;6.78;;;1.20;;
60243;SDS011;46106;51.468;5.814;2022-10-16T13:38:04;2.22;;;0.65;;
60243;SDS011;46106;51.468;5.814;2022-10-16T13:43:15;4.63;;;0.70;;
60243;SDS011;46106;51.468;5.814;2022-10-16T13:45:51;12.65;;;1.33;;
60243;SDS011;46106;51.468;5.814;2022-10-16T13:48:21;11.90;;;1.35;;
60243;SDS011;46106;51.468;5.814;2022-10-16T13:50:46;5.13;;;0.80;;
60243;SDS011;46106;51.468;5.814;2022-10-16T13:53:36;4.57;;;0.80;;
60243;SDS011;46106;51.468;5.814;2022-10-16T13:56:03;5.80;;;0.90;;
60243;SDS011;46106;51.468;5.814;2022-10-16T13:58:30;6.13;;;0.98;;
60243;SDS011;46106;51.468;5.814;2022-10-16T14:00:56;3.22;;;1.05;;
60243;SDS011;46106;51.468;5.814;2022-10-16T14:03:24;5.47;;;1.08;;
60243;SDS011;46106;51.468;5.814;2022-10-16T14:05:52;5.90;;;0.70;;
60243;SDS011;46106;51.468;5.814;2022-10-16T14:08:20;2.08;;;0.73;;
60243;SDS011;46106;51.468;5.814;2022-10-16T14:10:50;3.60;;;0.70;;
60243;SDS011;46106;51.468;5.814;2022-10-16T14:13:19;5.20;;;0.70;;
60243;SDS011;46106;51.468;5.814;2022-10-16T14:15:51;4.40;;;0.80;;
60243;SDS011;46106;51.468;5.814;2022-10-16T14:18:21;4.93;;;0.70;;
60243;SDS011;46106;51.468;5.814;2022-10-16T14:20:50;4.55;;;0.98;;
60243;SDS011;46106;51.468;5.814;2022-10-16T14:23:29;8.00;;;1.63;;
60243;SDS011;46106;51.468;5.814;2022-10-16T14:26:06;11.75;;;7.72;;
60243;SDS011;46106;51.468;5.814;2022-10-16T14:28:39;7.72;;;1.08;;
60243;SDS011;46106;51.468;5.814;2022-10-16T14:31:25;4.25;;;1.20;;
60243;SDS011;46106;51.468;5.814;2022-10-16T14:33:53;6.40;;;2.10;;
60243;SDS011;46106;51.468;5.814;2022-10-16T14:36:18;8.43;;;1.98;;
60243;SDS011;46106;51.468;5.814;2022-10-16T14:38:57;4.53;;;1.13;;
60243;SDS011;46106;51.468;5.814;2022-10-16T14:41:29;4.57;;;0.82;;
60243;SDS011;46106;51.468;5.814;2022-10-16T14:43:57;5.70;;;0.90;;
60243;SDS011;46106;51.468;5.814;2022-10-16T14:46:28;3.88;;;0.90;;
60243;SDS011;46106;51.468;5.814;2022-10-16T14:49:04;7.20;;;0.88;;
60243;SDS011;46106;51.468;5.814;2022-10-16T14:51:43;2.55;;;0.65;;
60243;SDS011;46106;51.468;5.814;2022-10-16T14:54:10;7.53;;;1.00;;
60243;SDS011;46106;51.468;5.814;2022-10-16T14:56:58;6.28;;;0.98;;
60243;SDS011;46106;51.468;5.814;2022-10-16T15:02:36;3.47;;;0.90;;
60243;SDS011;46106;51.468;5.814;2022-10-16T15:04:57;5.00;;;0.80;;
60243;SDS011;46106;51.468;5.814;2022-10-16T15:07:23;2.13;;;0.70;;
60243;SDS011;46106;51.468;5.814;2022-10-16T15:09:49;2.63;;;0.70;;
60243;SDS011;46106;51.468;5.814;2022-10-16T15:12:15;3.40;;;0.95;;
60243;SDS011;46106;51.468;5.814;2022-10-16T15:14:41;4.40;;;1.17;;
60243;SDS011;46106;51.468;5.814;2022-10-16T15:17:10;3.67;;;0.80;;
60243;SDS011;46106;51.468;5.814;2022-10-16T15:19:36;3.95;;;0.95;;
60243;SDS011;46106;51.468;5.814;2022-10-16T15:22:02;11.18;;;1.33;;
60243;SDS011;46106;51.468;5.814;2022-10-16T15:24:27;9.68;;;1.15;;
60243;SDS011;46106;51.468;5.814;2022-10-16T15:26:53;4.90;;;0.88;;
60243;SDS011;46106;51.468;5.814;2022-10-16T15:29:19;2.22;;;0.70;;
60243;SDS011;46106;51.468;5.814;2022-10-16T15:31:44;9.20;;;1.77;;
60243;SDS011;46106;51.468;5.814;2022-10-16T15:34:12;3.08;;;1.00;;
60243;SDS011;46106;51.468;5.814;2022-10-16T15:36:38;3.03;;;1.15;;
60243;SDS011;46106;51.468;5.814;2022-10-16T15:39:04;2.20;;;0.80;;
60243;SDS011;46106;51.468;5.814;2022-10-16T15:41:40;6.80;;;0.90;;
60243;SDS011;46106;51.468;5.814;2022-10-16T15:44:06;5.57;;;1.13;;
60243;SDS011;46106;51.468;5.814;2022-10-16T15:46:32;6.57;;;1.42;;
60243;SDS011;46106;51.468;5.814;2022-10-16T15:48:58;5.82;;;1.85;;
60243;SDS011;46106;51.468;5.814;2022-10-16T15:51:25;5.65;;;0.80;;
60243;SDS011;46106;51.468;5.814;2022-10-16T15:53:55;3.55;;;0.90;;
60243;SDS011;46106;51.468;5.814;2022-10-16T15:56:21;3.75;;;0.80;;
60243;SDS011;46106;51.468;5.814;2022-10-16T15:58:47;2.20;;;0.93;;
60243;SDS011;46106;51.468;5.814;2022-10-16T16:01:12;3.08;;;1.00;;
60243;SDS011;46106;51.468;5.814;2022-10-16T16:03:38;8.25;;;1.65;;
60243;SDS011;46106;51.468;5.814;2022-10-16T16:06:07;4.63;;;0.80;;
60243;SDS011;46106;51.468;5.814;2022-10-16T16:08:35;3.28;;;0.88;;
60243;SDS011;46106;51.468;5.814;2022-10-16T16:11:01;3.15;;;0.93;;
60243;SDS011;46106;51.468;5.814;2022-10-16T16:13:27;8.00;;;0.70;;
60243;SDS011;46106;51.468;5.814;2022-10-16T16:15:53;3.83;;;0.80;;
60243;SDS011;46106;51.468;5.814;2022-10-16T16:18:19;6.80;;;1.30;;
60243;SDS011;46106;51.468;5.814;2022-10-16T16:20:49;2.95;;;0.80;;
60243;SDS011;46106;51.468;5.814;2022-10-16T16:23:16;2.95;;;0.90;;
60243;SDS011;46106;51.468;5.814;2022-10-16T16:25:41;4.55;;;0.80;;
60243;SDS011;46106;51.468;5.814;2022-10-16T16:28:11;1.48;;;0.70;;
60243;SDS011;46106;51.468;5.814;2022-10-16T16:30:39;5.95;;;0.90;;
60243;SDS011;46106;51.468;5.814;2022-10-16T16:33:06;6.35;;;0.80;;
60243;SDS011;46106;51.468;5.814;2022-10-16T16:35:32;8.52;;;1.05;;
60243;SDS011;46106;51.468;5.814;2022-10-16T16:37:58;3.63;;;1.40;;
60243;SDS011;46106;51.468;5.814;2022-10-16T16:40:23;3.78;;;1.48;;
60243;SDS011;46106;51.468;5.814;2022-10-16T16:42:49;3.92;;;1.75;;
60243;SDS011;46106;51.468;5.814;2022-10-16T16:45:15;8.20;;;1.95;;
60243;SDS011;46106;51.468;5.814;2022-10-16T16:47:40;4.05;;;1.80;;
60243;SDS011;46106;51.468;5.814;2022-10-16T16:50:06;12.35;;;2.08;;
60243;SDS011;46106;51.468;5.814;2022-10-16T16:52:32;3.80;;;1.83;;